Mencey — EAPV — position and weather

sailwx.info

Track history (hours):
 
Tides and Currents Weather Stations Pressure Air Temp Water Temp Dewpoint Dewpoint Depression Visibility Wind Speed Wind Dir Waves Ship Positions

Mencey

Last reported at 2017-Nov-19 19:56 UTC. Time now 2017-Nov-20 17:33 UTC.
Position N 28°25' W 016°09'.

Length 109 m; draft 5.7 m.

Type: Ship. MMSI: 224447000.

Date/timePositionNaut miles runAvg speedWind from/ knotsBaromVisibWave heightAir tempDewpointWater temp
2017-Nov-19 19:56N 28°25' W 016°09'1 1.2
2017-Nov-19 19:30N 28°25' W 016°09'0 1.0
2017-Nov-19 19:00N 28°25' W 016°08'5 9.5
2017-Nov-19 18:30N 28°25' W 016°03'510.9
2017-Nov-19 18:00N 28°23' W 015°57'510.9
2017-Nov-19 17:30N 28°22' W 015°51'510.8
2017-Nov-19 17:00N 28°20' W 015°45'510.7
2017-Nov-19 16:30N 28°18' W 015°39'510.8
2017-Nov-19 16:00N 28°16' W 015°34'510.9
2017-Nov-19 15:30N 28°15' W 015°28'510.9
2017-Nov-19 15:00N 28°12' W 015°22'510.8
2017-Nov-19 14:30N 28°07' W 015°20'510.5
2017-Nov-19 14:00N 28°02' W 015°19'4 8.5
2017-Nov-19 13:30N 27°59' W 015°22'1 0.2
2017-Nov-19 10:08N 27°59' W 015°23'0 0.6
2017-Nov-19 10:00N 27°58' W 015°23'2 4.4
2017-Nov-19 09:30N 27°59' W 015°20'5 9.3
2017-Nov-19 09:00N 28°01' W 015°15'611.3
2017-Nov-19 08:30N 28°03' W 015°10'611.2
2017-Nov-19 08:00N 28°06' W 015°04'510.3
2017-Nov-19 07:30N 28°08' W 014°59'510.6
2017-Nov-19 07:00N 28°06' W 014°53'510.4
2017-Nov-19 06:30N 28°05' W 014°47'510.6
2017-Nov-19 06:00N 28°04' W 014°41'510.7
2017-Nov-19 05:30N 28°02' W 014°35'510.0
2017-Nov-19 05:01N 28°01' W 014°30'2210.2
2017-Nov-19 02:49N 28°07' W 014°05'4 0.2
2017-Nov-17 23:41N 28°08' W 014°01'210.9
2017-Nov-17 23:30N 28°08' W 014°03'610.6
2017-Nov-17 22:55N 28°04' W 014°08'1210.7
2017-Nov-17 21:50N 27°60' W 014°21'410.6
2017-Nov-17 21:29N 27°60' W 014°25'510.4
2017-Nov-17 21:00N 27°60' W 014°30'510.1
2017-Nov-17 20:30N 27°60' W 014°36'510.4
2017-Nov-17 20:00N 28°00' W 014°42'510.2
2017-Nov-17 19:30N 28°01' W 014°48'510.6
2017-Nov-17 19:00N 28°02' W 014°53'510.9
2017-Nov-17 18:30N 28°03' W 014°60'510.4
2017-Nov-17 18:00N 28°03' W 015°06'510.5
2017-Nov-17 17:30N 28°01' W 015°11'5 9.9
2017-Nov-17 17:00N 27°59' W 015°16'5 9.7
2017-Nov-17 16:30N 27°58' W 015°22'1 2.2
2017-Nov-17 15:59N 27°59' W 015°23'0 0.0
2017-Nov-17 15:29N 27°59' W 015°23'0 0.0
2017-Nov-17 14:47N 27°59' W 015°23'0 0.0
2017-Nov-17 14:29N 27°59' W 015°23'0 0.0
2017-Nov-17 13:59N 27°59' W 015°23'0 0.0
2017-Nov-17 13:20N 27°59' W 015°23'0 0.0
2017-Nov-17 12:50N 27°59' W 015°23'0 0.0
2017-Nov-17 12:17N 27°59' W 015°23'0 0.0
2017-Nov-17 11:53N 27°59' W 015°23'0 0.0
2017-Nov-17 11:23N 27°59' W 015°23'0 0.0
2017-Nov-17 10:53N 27°59' W 015°23'0 0.0
2017-Nov-17 10:23N 27°59' W 015°23'0 0.0
2017-Nov-17 09:53N 27°59' W 015°23'0 0.0
2017-Nov-17 09:26N 27°59' W 015°23'0 0.0
2017-Nov-17 08:56N 27°59' W 015°23'0 0.0
2017-Nov-17 08:26N 27°59' W 015°23'0 0.0
2017-Nov-17 07:56N 27°59' W 015°23'0 0.0
2017-Nov-17 07:26N 27°59' W 015°23'0 0.0
2017-Nov-17 06:56N 27°59' W 015°23'0 0.0
2017-Nov-17 06:29N 27°59' W 015°23'0 0.0
2017-Nov-17 05:59N 27°59' W 015°23'0 0.0
2017-Nov-17 05:29N 27°59' W 015°23'0 0.0
2017-Nov-17 04:59N 27°59' W 015°23'0 0.0
2017-Nov-17 04:29N 27°59' W 015°23'0 0.2
2017-Nov-17 04:00N 27°58' W 015°23'1 2.3
2017-Nov-17 03:30N 27°59' W 015°21'0 0.5
2017-Nov-17 03:00N 27°59' W 015°21'3 5.7
2017-Nov-17 02:30N 28°01' W 015°20'510.1
2017-Nov-17 02:00N 28°06' W 015°21'5 9.8
2017-Nov-17 01:30N 28°11' W 015°22'4 8.3
2017-Nov-17 01:00N 28°13' W 015°26'5 9.5
2017-Nov-17 00:30N 28°15' W 015°31'510.1
2017-Nov-17 00:00N 28°16' W 015°36'5 9.9
2017-Nov-16 23:31N 28°17' W 015°42'5 9.6
2017-Nov-16 23:01N 28°19' W 015°47'510.0
2017-Nov-16 22:30N 28°20' W 015°53'5 9.9
2017-Nov-16 22:00N 28°22' W 015°58'5 9.9
2017-Nov-16 21:30N 28°23' W 016°03'5 9.9
2017-Nov-16 20:56N 28°24' W 016°09'4 9.5
2017-Nov-16 20:30N 28°26' W 016°14'2 0.2
2017-Nov-16 08:20N 28°27' W 016°16'0 1.1
2017-Nov-16 08:00N 28°27' W 016°15'3 5.4
2017-Nov-16 07:30N 28°27' W 016°12'1 2.8
2017-Nov-16 07:00N 28°26' W 016°12'5 9.6
2017-Nov-16 06:30N 28°27' W 016°07'510.2
2017-Nov-16 06:00N 28°30' W 016°02'510.1
2017-Nov-16 05:30N 28°34' W 015°58'5 9.9
2017-Nov-16 05:00N 28°37' W 015°53'5 9.9
2017-Nov-16 04:30N 28°40' W 015°49'5 9.7
2017-Nov-16 04:00N 28°37' W 015°44'5 9.7
2017-Nov-16 03:30N 28°35' W 015°40'5 9.4
2017-Nov-16 03:00N 28°32' W 015°35'5 9.2
2017-Nov-16 02:30N 28°28' W 015°33'5 9.2
2017-Nov-16 02:00N 28°24' W 015°30'5 9.4
2017-Nov-16 01:30N 28°20' W 015°27'5 9.5
2017-Nov-16 01:00N 28°16' W 015°24'5 9.4
2017-Nov-16 00:30N 28°12' W 015°22'5 9.5
2017-Nov-16 00:00N 28°07' W 015°21'5 9.2
2017-Nov-15 23:30N 28°03' W 015°20'5 9.0
2017-Nov-15 23:00N 27°58' W 015°19'3 5.5
2017-Nov-15 22:29N 27°59' W 015°23'0 0.0
2017-Nov-15 21:59N 27°59' W 015°23'0 0.0
2017-Nov-15 19:16N 27°59' W 015°23'0 0.0
2017-Nov-15 09:15N 27°59' W 015°23'0 1.5
2017-Nov-15 09:00N 27°59' W 015°22'4 7.2
2017-Nov-15 08:30N 27°60' W 015°18'2 4.8
2017-Nov-15 08:00N 27°59' W 015°16'0 0.6
2017-Nov-15 07:30N 27°59' W 015°16'2 3.2
2017-Nov-15 07:00N 27°59' W 015°18'4 8.6
2017-Nov-15 06:30N 28°01' W 015°14'510.5
2017-Nov-15 06:00N 28°03' W 015°08'510.2
2017-Nov-15 05:31N 28°04' W 015°02'510.3
2017-Nov-15 05:00N 28°03' W 014°56'510.4
2017-Nov-15 04:30N 28°03' W 014°51'510.3
2017-Nov-15 04:00N 28°02' W 014°45'510.5
2017-Nov-15 03:30N 28°02' W 014°39'510.1
2017-Nov-15 03:00N 28°01' W 014°33'510.1
2017-Nov-15 02:30N 28°01' W 014°27'18 9.7
2017-Nov-15 00:36N 28°06' W 014°07'210.0
2017-Nov-15 00:26N 28°07' W 014°06'4 9.6
2017-Nov-15 00:00N 28°08' W 014°01'4410.1
2017-Nov-14 19:40N 28°48' W 013°39'210.8
2017-Nov-14 19:30N 28°49' W 013°38'510.6
2017-Nov-14 19:00N 28°54' W 013°36'2 4.2
2017-Nov-14 18:30N 28°56' W 013°36'0 0.0
2017-Nov-14 10:04N 28°56' W 013°36'0 0.0
2017-Nov-14 09:46N 28°56' W 013°36'0 0.0
2017-Nov-14 09:28N 28°56' W 013°36'0 0.6
2017-Nov-14 09:00N 28°56' W 013°36'3 5.2
2017-Nov-14 08:30N 28°56' W 013°33'1 1.7
2017-Nov-14 08:00N 28°56' W 013°32'0 0.6
2017-Nov-14 07:30N 28°56' W 013°32'3 5.6
2017-Nov-14 07:00N 28°53' W 013°34'3 6.8
2017-Nov-14 06:29N 28°54' W 013°30'4 7.6
2017-Nov-14 06:00N 28°52' W 013°33'4 9.0
2017-Nov-14 05:31N 28°50' W 013°38'5 8.9
2017-Nov-14 05:00N 28°48' W 013°43'4 8.6
2017-Nov-14 04:30N 28°48' W 013°48'5 9.3
2017-Nov-14 04:00N 28°48' W 013°53'5 9.1
2017-Nov-14 03:29N 28°48' W 013°58'4 8.6
2017-Nov-14 03:01N 28°48' W 014°03'5 9.0
2017-Nov-14 02:29N 28°47' W 014°08'4 9.2
2017-Nov-14 02:01N 28°46' W 014°13'5 9.2
2017-Nov-14 01:30N 28°45' W 014°18'11 9.0
2017-Nov-14 00:14N 28°43' W 014°31'4 8.9
2017-Nov-13 23:49N 28°42' W 014°35'3 9.0
2017-Nov-13 23:27N 28°42' W 014°39'4 9.1
2017-Nov-13 23:00N 28°42' W 014°43'5 9.1
2017-Nov-13 22:30N 28°42' W 014°49'5 9.4
2017-Nov-13 22:00N 28°42' W 014°54'70 3.0
2017-Nov-12 22:16N 28°29' W 016°13'0 0.6
2017-Nov-12 21:55N 28°29' W 016°13'0 0.0
2017-Nov-12 21:27N 28°29' W 016°13'0 0.0
2017-Nov-12 20:50N 28°29' W 016°13'0 0.0
2017-Nov-12 20:05N 28°29' W 016°13'0 0.1
2017-Nov-12 19:56N 28°29' W 016°13'0 0.0
2017-Nov-12 19:26N 28°29' W 016°13'0 0.0
2017-Nov-12 17:23N 28°29' W 016°13'0 0.0
2017-Nov-12 16:14N 28°29' W 016°13'0 0.0
2017-Nov-12 15:14N 28°29' W 016°13'0 0.0
2017-Nov-12 14:59N 28°29' W 016°13'0 0.0
2017-Nov-12 14:29N 28°29' W 016°13'0 0.0
2017-Nov-12 13:59N 28°29' W 016°13'0 0.0
2017-Nov-12 13:29N 28°29' W 016°13'0 0.0
2017-Nov-12 12:59N 28°29' W 016°13'0 0.0
2017-Nov-12 12:29N 28°29' W 016°13'0 0.0
2017-Nov-12 11:59N 28°29' W 016°13'0 0.0
2017-Nov-12 11:29N 28°29' W 016°13'0 0.0
2017-Nov-12 10:47N 28°29' W 016°13'0 0.1
2017-Nov-12 10:20N 28°29' W 016°13'0 0.0
2017-Nov-12 09:53N 28°29' W 016°13'0 0.1
2017-Nov-12 09:23N 28°29' W 016°13'0 0.1
2017-Nov-12 08:53N 28°29' W 016°13'0 0.0
2017-Nov-12 08:23N 28°29' W 016°13'0 0.2
2017-Nov-12 07:57N 28°29' W 016°13'1 2.2
2017-Nov-12 07:30N 28°28' W 016°13'5 9.5
2017-Nov-12 07:00N 28°24' W 016°09'4 7.1
2017-Nov-12 06:30N 28°24' W 016°05'510.0
2017-Nov-12 06:00N 28°27' W 016°02'510.1
2017-Nov-12 05:30N 28°31' W 015°58'510.2
2017-Nov-12 05:00N 28°35' W 015°54'510.4
2017-Nov-12 04:29N 28°39' W 015°50'510.4
2017-Nov-12 04:00N 28°42' W 015°46'5 9.3
2017-Nov-12 03:30N 28°39' W 015°42'510.1
2017-Nov-12 03:00N 28°35' W 015°39'510.1
2017-Nov-12 02:30N 28°31' W 015°35'5 9.9
2017-Nov-12 02:00N 28°27' W 015°32'510.1
2017-Nov-12 01:30N 28°23' W 015°29'510.0
2017-Nov-12 01:00N 28°19' W 015°25'5 9.5
2017-Nov-12 00:30N 28°14' W 015°23'5 9.7
2017-Nov-12 00:00N 28°10' W 015°21'3 6.9
2017-Nov-11 23:30N 28°07' W 015°23'2 4.4
2017-Nov-11 23:00N 28°08' W 015°25'0 0.0
2017-Nov-11 22:30N 28°08' W 015°25'0 0.0
2017-Nov-11 21:50N 28°08' W 015°25'0 0.0
2017-Nov-11 21:20N 28°08' W 015°25'0 0.0
2017-Nov-11 20:53N 28°08' W 015°25'0 0.0
2017-Nov-11 20:23N 28°08' W 015°25'0 0.0
2017-Nov-11 19:53N 28°08' W 015°25'0 0.0
2017-Nov-11 19:23N 28°08' W 015°25'0 0.0
2017-Nov-11 18:53N 28°08' W 015°25'0 0.4
2017-Nov-11 18:30N 28°08' W 015°25'2 4.2
2017-Nov-11 18:00N 28°08' W 015°23'2 4.8
2017-Nov-11 17:31N 28°09' W 015°21'510.6
2017-Nov-11 17:00N 28°12' W 015°15'510.6
2017-Nov-11 16:31N 28°14' W 015°10'510.8
2017-Nov-11 16:00N 28°17' W 015°05'510.7
2017-Nov-11 15:30N 28°20' W 014°60'510.8
2017-Nov-11 15:00N 28°22' W 014°54'510.7
2017-Nov-11 14:31N 28°25' W 014°49'510.7
2017-Nov-11 14:01N 28°27' W 014°44'510.7
2017-Nov-11 13:31N 28°30' W 014°39'510.6
2017-Nov-11 13:00N 28°33' W 014°33'510.8
2017-Nov-11 12:31N 28°35' W 014°28'510.8
2017-Nov-11 12:00N 28°37' W 014°22'510.7
2017-Nov-11 11:30N 28°39' W 014°16'510.4
2017-Nov-11 11:00N 28°42' W 014°11'510.5
2017-Nov-11 10:30N 28°45' W 014°06'510.6
2017-Nov-11 10:00N 28°47' W 014°01'510.9
2017-Nov-11 09:30N 28°49' W 013°55'611.5
2017-Nov-11 09:00N 28°49' W 013°48'610.4
2017-Nov-11 08:25N 28°51' W 013°42'710.0
2017-Nov-11 07:43N 28°56' W 013°36'1 0.9
2017-Nov-11 06:58N 28°56' W 013°36'0 0.0
2017-Nov-10 16:08N 28°56' W 013°36'0 0.0
2017-Nov-10 14:41N 28°56' W 013°36'0 0.0
2017-Nov-10 14:08N 28°56' W 013°36'0 0.0
2017-Nov-10 13:49N 28°56' W 013°36'0 0.0
2017-Nov-10 11:37N 28°56' W 013°36'0 0.0
2017-Nov-10 11:23N 28°56' W 013°36'0 0.0
2017-Nov-10 09:55N 28°56' W 013°36'1 2.3
2017-Nov-10 09:30N 28°56' W 013°35'2 5.0
2017-Nov-10 09:01N 28°53' W 013°36'2 4.7
2017-Nov-10 08:30N 28°52' W 013°33'3 5.7
2017-Nov-10 08:00N 28°55' W 013°35'2 4.0
2017-Nov-10 07:29N 28°53' W 013°35'2 4.7
2017-Nov-10 07:00N 28°50' W 013°35'1 1.6
2017-Nov-10 06:30N 28°51' W 013°35'1 1.5
2017-Nov-10 06:00N 28°52' W 013°34'1 1.3
2017-Nov-10 05:28N 28°52' W 013°34'1 1.2
2017-Nov-10 04:53N 28°53' W 013°33'0 1.2
2017-Nov-10 04:30N 28°53' W 013°33'1 1.2
2017-Nov-10 04:00N 28°53' W 013°32'1 1.2
2017-Nov-10 03:30N 28°54' W 013°32'1 1.2
2017-Nov-10 03:00N 28°54' W 013°31'1 1.3
2017-Nov-10 02:30N 28°55' W 013°31'1 1.4
2017-Nov-10 02:00N 28°55' W 013°30'1 1.5
2017-Nov-10 01:30N 28°56' W 013°29'1 1.4
2017-Nov-10 01:00N 28°56' W 013°29'1 1.3
2017-Nov-10 00:30N 28°57' W 013°28'4 7.8
2017-Nov-10 00:00N 28°54' W 013°32'5 9.1
2017-Nov-09 23:28N 28°51' W 013°36'4 9.1
2017-Nov-09 23:00N 28°47' W 013°38'6 9.4
2017-Nov-09 22:22N 28°42' W 013°41'  
Track history (hours):
 
Tides and Currents Weather Stations Pressure Air Temp Water Temp Dewpoint Dewpoint Depression Visibility Wind Speed Wind Dir Waves Ship Positions

Mencey

Last reported at 2017-Nov-19 19:56 UTC. Time now 2017-Nov-20 17:33 UTC.
Position N 28°25' W 016°09'.

Length 109 m; draft 5.7 m.

Type: Ship. MMSI: 224447000.

Date/timePositionNaut miles runAvg speedWind from/ knotsBaromVisibWave heightAir tempDewpointWater temp
2017-Nov-19 19:56N 28°25' W 016°09'1 1.2
2017-Nov-19 19:30N 28°25' W 016°09'0 1.0
2017-Nov-19 19:00N 28°25' W 016°08'5 9.5
2017-Nov-19 18:30N 28°25' W 016°03'510.9
2017-Nov-19 18:00N 28°23' W 015°57'510.9
2017-Nov-19 17:30N 28°22' W 015°51'510.8
2017-Nov-19 17:00N 28°20' W 015°45'510.7
2017-Nov-19 16:30N 28°18' W 015°39'510.8
2017-Nov-19 16:00N 28°16' W 015°34'510.9
2017-Nov-19 15:30N 28°15' W 015°28'510.9
2017-Nov-19 15:00N 28°12' W 015°22'510.8
2017-Nov-19 14:30N 28°07' W 015°20'510.5
2017-Nov-19 14:00N 28°02' W 015°19'4 8.5
2017-Nov-19 13:30N 27°59' W 015°22'1 0.2
2017-Nov-19 10:08N 27°59' W 015°23'0 0.6
2017-Nov-19 10:00N 27°58' W 015°23'2 4.4
2017-Nov-19 09:30N 27°59' W 015°20'5 9.3
2017-Nov-19 09:00N 28°01' W 015°15'611.3
2017-Nov-19 08:30N 28°03' W 015°10'611.2
2017-Nov-19 08:00N 28°06' W 015°04'510.3
2017-Nov-19 07:30N 28°08' W 014°59'510.6
2017-Nov-19 07:00N 28°06' W 014°53'510.4
2017-Nov-19 06:30N 28°05' W 014°47'510.6
2017-Nov-19 06:00N 28°04' W 014°41'510.7
2017-Nov-19 05:30N 28°02' W 014°35'510.0
2017-Nov-19 05:01N 28°01' W 014°30'2210.2
2017-Nov-19 02:49N 28°07' W 014°05'4 0.2
2017-Nov-17 23:41N 28°08' W 014°01'210.9
2017-Nov-17 23:30N 28°08' W 014°03'610.6
2017-Nov-17 22:55N 28°04' W 014°08'1210.7
2017-Nov-17 21:50N 27°60' W 014°21'410.6
2017-Nov-17 21:29N 27°60' W 014°25'510.4
2017-Nov-17 21:00N 27°60' W 014°30'510.1
2017-Nov-17 20:30N 27°60' W 014°36'510.4
2017-Nov-17 20:00N 28°00' W 014°42'510.2
2017-Nov-17 19:30N 28°01' W 014°48'510.6
2017-Nov-17 19:00N 28°02' W 014°53'510.9
2017-Nov-17 18:30N 28°03' W 014°60'510.4
2017-Nov-17 18:00N 28°03' W 015°06'510.5
2017-Nov-17 17:30N 28°01' W 015°11'5 9.9
2017-Nov-17 17:00N 27°59' W 015°16'5 9.7
2017-Nov-17 16:30N 27°58' W 015°22'1 2.2
2017-Nov-17 15:59N 27°59' W 015°23'0 0.0
2017-Nov-17 15:29N 27°59' W 015°23'0 0.0
2017-Nov-17 14:47N 27°59' W 015°23'0 0.0
2017-Nov-17 14:29N 27°59' W 015°23'0 0.0
2017-Nov-17 13:59N 27°59' W 015°23'0 0.0
2017-Nov-17 13:20N 27°59' W 015°23'0 0.0
2017-Nov-17 12:50N 27°59' W 015°23'0 0.0
2017-Nov-17 12:17N 27°59' W 015°23'0 0.0
2017-Nov-17 11:53N 27°59' W 015°23'0 0.0
2017-Nov-17 11:23N 27°59' W 015°23'0 0.0
2017-Nov-17 10:53N 27°59' W 015°23'0 0.0
2017-Nov-17 10:23N 27°59' W 015°23'0 0.0
2017-Nov-17 09:53N 27°59' W 015°23'0 0.0
2017-Nov-17 09:26N 27°59' W 015°23'0 0.0
2017-Nov-17 08:56N 27°59' W 015°23'0 0.0
2017-Nov-17 08:26N 27°59' W 015°23'0 0.0
2017-Nov-17 07:56N 27°59' W 015°23'0 0.0
2017-Nov-17 07:26N 27°59' W 015°23'0 0.0
2017-Nov-17 06:56N 27°59' W 015°23'0 0.0
2017-Nov-17 06:29N 27°59' W 015°23'0 0.0
2017-Nov-17 05:59N 27°59' W 015°23'0 0.0
2017-Nov-17 05:29N 27°59' W 015°23'0 0.0
2017-Nov-17 04:59N 27°59' W 015°23'0 0.0
2017-Nov-17 04:29N 27°59' W 015°23'0 0.2
2017-Nov-17 04:00N 27°58' W 015°23'1 2.3
2017-Nov-17 03:30N 27°59' W 015°21'0 0.5
2017-Nov-17 03:00N 27°59' W 015°21'3 5.7
2017-Nov-17 02:30N 28°01' W 015°20'510.1
2017-Nov-17 02:00N 28°06' W 015°21'5 9.8
2017-Nov-17 01:30N 28°11' W 015°22'4 8.3
2017-Nov-17 01:00N 28°13' W 015°26'5 9.5
2017-Nov-17 00:30N 28°15' W 015°31'510.1
2017-Nov-17 00:00N 28°16' W 015°36'5 9.9
2017-Nov-16 23:31N 28°17' W 015°42'5 9.6
2017-Nov-16 23:01N 28°19' W 015°47'510.0
2017-Nov-16 22:30N 28°20' W 015°53'5 9.9
2017-Nov-16 22:00N 28°22' W 015°58'5 9.9
2017-Nov-16 21:30N 28°23' W 016°03'5 9.9
2017-Nov-16 20:56N 28°24' W 016°09'4 9.5
2017-Nov-16 20:30N 28°26' W 016°14'2 0.2
2017-Nov-16 08:20N 28°27' W 016°16'0 1.1
2017-Nov-16 08:00N 28°27' W 016°15'3 5.4
2017-Nov-16 07:30N 28°27' W 016°12'1 2.8
2017-Nov-16 07:00N 28°26' W 016°12'5 9.6
2017-Nov-16 06:30N 28°27' W 016°07'510.2
2017-Nov-16 06:00N 28°30' W 016°02'510.1
2017-Nov-16 05:30N 28°34' W 015°58'5 9.9
2017-Nov-16 05:00N 28°37' W 015°53'5 9.9
2017-Nov-16 04:30N 28°40' W 015°49'5 9.7
2017-Nov-16 04:00N 28°37' W 015°44'5 9.7
2017-Nov-16 03:30N 28°35' W 015°40'5 9.4
2017-Nov-16 03:00N 28°32' W 015°35'5 9.2
2017-Nov-16 02:30N 28°28' W 015°33'5 9.2
2017-Nov-16 02:00N 28°24' W 015°30'5 9.4
2017-Nov-16 01:30N 28°20' W 015°27'5 9.5
2017-Nov-16 01:00N 28°16' W 015°24'5 9.4
2017-Nov-16 00:30N 28°12' W 015°22'5 9.5
2017-Nov-16 00:00N 28°07' W 015°21'5 9.2
2017-Nov-15 23:30N 28°03' W 015°20'5 9.0
2017-Nov-15 23:00N 27°58' W 015°19'3 5.5
2017-Nov-15 22:29N 27°59' W 015°23'0 0.0
2017-Nov-15 21:59N 27°59' W 015°23'0 0.0
2017-Nov-15 19:16N 27°59' W 015°23'0 0.0
2017-Nov-15 09:15N 27°59' W 015°23'0 1.5
2017-Nov-15 09:00N 27°59' W 015°22'4 7.2
2017-Nov-15 08:30N 27°60' W 015°18'2 4.8
2017-Nov-15 08:00N 27°59' W 015°16'0 0.6
2017-Nov-15 07:30N 27°59' W 015°16'2 3.2
2017-Nov-15 07:00N 27°59' W 015°18'4 8.6
2017-Nov-15 06:30N 28°01' W 015°14'510.5
2017-Nov-15 06:00N 28°03' W 015°08'510.2
2017-Nov-15 05:31N 28°04' W 015°02'510.3
2017-Nov-15 05:00N 28°03' W 014°56'510.4
2017-Nov-15 04:30N 28°03' W 014°51'510.3
2017-Nov-15 04:00N 28°02' W 014°45'510.5
2017-Nov-15 03:30N 28°02' W 014°39'510.1
2017-Nov-15 03:00N 28°01' W 014°33'510.1
2017-Nov-15 02:30N 28°01' W 014°27'18 9.7
2017-Nov-15 00:36N 28°06' W 014°07'210.0
2017-Nov-15 00:26N 28°07' W 014°06'4 9.6
2017-Nov-15 00:00N 28°08' W 014°01'4410.1
2017-Nov-14 19:40N 28°48' W 013°39'210.8
2017-Nov-14 19:30N 28°49' W 013°38'510.6
2017-Nov-14 19:00N 28°54' W 013°36'2 4.2
2017-Nov-14 18:30N 28°56' W 013°36'0 0.0
2017-Nov-14 10:04N 28°56' W 013°36'0 0.0
2017-Nov-14 09:46N 28°56' W 013°36'0 0.0
2017-Nov-14 09:28N 28°56' W 013°36'0 0.6
2017-Nov-14 09:00N 28°56' W 013°36'3 5.2
2017-Nov-14 08:30N 28°56' W 013°33'1 1.7
2017-Nov-14 08:00N 28°56' W 013°32'0 0.6
2017-Nov-14 07:30N 28°56' W 013°32'3 5.6
2017-Nov-14 07:00N 28°53' W 013°34'3 6.8
2017-Nov-14 06:29N 28°54' W 013°30'4 7.6
2017-Nov-14 06:00N 28°52' W 013°33'4 9.0
2017-Nov-14 05:31N 28°50' W 013°38'5 8.9
2017-Nov-14 05:00N 28°48' W 013°43'4 8.6
2017-Nov-14 04:30N 28°48' W 013°48'5 9.3
2017-Nov-14 04:00N 28°48' W 013°53'5 9.1
2017-Nov-14 03:29N 28°48' W 013°58'4 8.6
2017-Nov-14 03:01N 28°48' W 014°03'5 9.0
2017-Nov-14 02:29N 28°47' W 014°08'4 9.2
2017-Nov-14 02:01N 28°46' W 014°13'5 9.2
2017-Nov-14 01:30N 28°45' W 014°18'11 9.0
2017-Nov-14 00:14N 28°43' W 014°31'4 8.9
2017-Nov-13 23:49N 28°42' W 014°35'3 9.0
2017-Nov-13 23:27N 28°42' W 014°39'4 9.1
2017-Nov-13 23:00N 28°42' W 014°43'5 9.1
2017-Nov-13 22:30N 28°42' W 014°49'5 9.4
2017-Nov-13 22:00N 28°42' W 014°54'70 3.0
2017-Nov-12 22:16N 28°29' W 016°13'0 0.6
2017-Nov-12 21:55N 28°29' W 016°13'0 0.0
2017-Nov-12 21:27N 28°29' W 016°13'0 0.0
2017-Nov-12 20:50N 28°29' W 016°13'0 0.0
2017-Nov-12 20:05N 28°29' W 016°13'0 0.1
2017-Nov-12 19:56N 28°29' W 016°13'0 0.0
2017-Nov-12 19:26N 28°29' W 016°13'0 0.0
2017-Nov-12 17:23N 28°29' W 016°13'0 0.0
2017-Nov-12 16:14N 28°29' W 016°13'0 0.0
2017-Nov-12 15:14N 28°29' W 016°13'0 0.0
2017-Nov-12 14:59N 28°29' W 016°13'0 0.0
2017-Nov-12 14:29N 28°29' W 016°13'0 0.0
2017-Nov-12 13:59N 28°29' W 016°13'0 0.0
2017-Nov-12 13:29N 28°29' W 016°13'0 0.0
2017-Nov-12 12:59N 28°29' W 016°13'0 0.0
2017-Nov-12 12:29N 28°29' W 016°13'0 0.0
2017-Nov-12 11:59N 28°29' W 016°13'0 0.0
2017-Nov-12 11:29N 28°29' W 016°13'0 0.0
2017-Nov-12 10:47N 28°29' W 016°13'0 0.1
2017-Nov-12 10:20N 28°29' W 016°13'0 0.0
2017-Nov-12 09:53N 28°29' W 016°13'0 0.1
2017-Nov-12 09:23N 28°29' W 016°13'0 0.1
2017-Nov-12 08:53N 28°29' W 016°13'0 0.0
2017-Nov-12 08:23N 28°29' W 016°13'0 0.2
2017-Nov-12 07:57N 28°29' W 016°13'1 2.2
2017-Nov-12 07:30N 28°28' W 016°13'5 9.5
2017-Nov-12 07:00N 28°24' W 016°09'4 7.1
2017-Nov-12 06:30N 28°24' W 016°05'510.0
2017-Nov-12 06:00N 28°27' W 016°02'510.1
2017-Nov-12 05:30N 28°31' W 015°58'510.2
2017-Nov-12 05:00N 28°35' W 015°54'510.4
2017-Nov-12 04:29N 28°39' W 015°50'510.4
2017-Nov-12 04:00N 28°42' W 015°46'5 9.3
2017-Nov-12 03:30N 28°39' W 015°42'510.1
2017-Nov-12 03:00N 28°35' W 015°39'510.1
2017-Nov-12 02:30N 28°31' W 015°35'5 9.9
2017-Nov-12 02:00N 28°27' W 015°32'510.1
2017-Nov-12 01:30N 28°23' W 015°29'510.0
2017-Nov-12 01:00N 28°19' W 015°25'5 9.5
2017-Nov-12 00:30N 28°14' W 015°23'5 9.7
2017-Nov-12 00:00N 28°10' W 015°21'3 6.9
2017-Nov-11 23:30N 28°07' W 015°23'2 4.4
2017-Nov-11 23:00N 28°08' W 015°25'0 0.0
2017-Nov-11 22:30N 28°08' W 015°25'0 0.0
2017-Nov-11 21:50N 28°08' W 015°25'0 0.0
2017-Nov-11 21:20N 28°08' W 015°25'0 0.0
2017-Nov-11 20:53N 28°08' W 015°25'0 0.0
2017-Nov-11 20:23N 28°08' W 015°25'0 0.0
2017-Nov-11 19:53N 28°08' W 015°25'0 0.0
2017-Nov-11 19:23N 28°08' W 015°25'0 0.0
2017-Nov-11 18:53N 28°08' W 015°25'0 0.4
2017-Nov-11 18:30N 28°08' W 015°25'2 4.2
2017-Nov-11 18:00N 28°08' W 015°23'2 4.8
2017-Nov-11 17:31N 28°09' W 015°21'510.6
2017-Nov-11 17:00N 28°12' W 015°15'510.6
2017-Nov-11 16:31N 28°14' W 015°10'510.8
2017-Nov-11 16:00N 28°17' W 015°05'510.7
2017-Nov-11 15:30N 28°20' W 014°60'510.8
2017-Nov-11 15:00N 28°22' W 014°54'510.7
2017-Nov-11 14:31N 28°25' W 014°49'510.7
2017-Nov-11 14:01N 28°27' W 014°44'510.7
2017-Nov-11 13:31N 28°30' W 014°39'510.6
2017-Nov-11 13:00N 28°33' W 014°33'510.8
2017-Nov-11 12:31N 28°35' W 014°28'510.8
2017-Nov-11 12:00N 28°37' W 014°22'510.7
2017-Nov-11 11:30N 28°39' W 014°16'510.4
2017-Nov-11 11:00N 28°42' W 014°11'510.5
2017-Nov-11 10:30N 28°45' W 014°06'510.6
2017-Nov-11 10:00N 28°47' W 014°01'510.9
2017-Nov-11 09:30N 28°49' W 013°55'611.5
2017-Nov-11 09:00N 28°49' W 013°48'610.4
2017-Nov-11 08:25N 28°51' W 013°42'710.0
2017-Nov-11 07:43N 28°56' W 013°36'1 0.9
2017-Nov-11 06:58N 28°56' W 013°36'0 0.0
2017-Nov-10 16:08N 28°56' W 013°36'0 0.0
2017-Nov-10 14:41N 28°56' W 013°36'0 0.0
2017-Nov-10 14:08N 28°56' W 013°36'0 0.0
2017-Nov-10 13:49N 28°56' W 013°36'0 0.0
2017-Nov-10 11:37N 28°56' W 013°36'0 0.0
2017-Nov-10 11:23N 28°56' W 013°36'0 0.0
2017-Nov-10 09:55N 28°56' W 013°36'1 2.3
2017-Nov-10 09:30N 28°56' W 013°35'2 5.0
2017-Nov-10 09:01N 28°53' W 013°36'2 4.7
2017-Nov-10 08:30N 28°52' W 013°33'3 5.7
2017-Nov-10 08:00N 28°55' W 013°35'2 4.0
2017-Nov-10 07:29N 28°53' W 013°35'2 4.7
2017-Nov-10 07:00N 28°50' W 013°35'1 1.6
2017-Nov-10 06:30N 28°51' W 013°35'1 1.5
2017-Nov-10 06:00N 28°52' W 013°34'1 1.3
2017-Nov-10 05:28N 28°52' W 013°34'1 1.2
2017-Nov-10 04:53N 28°53' W 013°33'0 1.2
2017-Nov-10 04:30N 28°53' W 013°33'1 1.2
2017-Nov-10 04:00N 28°53' W 013°32'1 1.2
2017-Nov-10 03:30N 28°54' W 013°32'1 1.2
2017-Nov-10 03:00N 28°54' W 013°31'1 1.3
2017-Nov-10 02:30N 28°55' W 013°31'1 1.4
2017-Nov-10 02:00N 28°55' W 013°30'1 1.5
2017-Nov-10 01:30N 28°56' W 013°29'1 1.4
2017-Nov-10 01:00N 28°56' W 013°29'1 1.3
2017-Nov-10 00:30N 28°57' W 013°28'4 7.8
2017-Nov-10 00:00N 28°54' W 013°32'5 9.1
2017-Nov-09 23:28N 28°51' W 013°36'4 9.1
2017-Nov-09 23:00N 28°47' W 013°38'6 9.4
2017-Nov-09 22:22N 28°42' W 013°41'  

Dump ship's entire track history